Time;durP1;ratioP1;P1;durP2;ratioP2;P2;SDS_P1;SDS_P2;PMS_P1;PMS_P2;Temp;Humidity;BMP_temperature;BMP_pressure;BME280_temperature;BME280_humidity;BME280_pressure;Samples;Min_cycle;Max_cycle;Signal;HPM_P1;HPM_P2
2022/09/17 00:01:41;;;;;;;;;22.20;22.20;;;;;22.47;64.33;98207.13;5106482;28;8950;-79
2022/09/17 00:04:10;;;;;;;;;26.40;22.80;;;;;22.49;63.94;98204.38;5088514;28;8854;-78
2022/09/17 00:06:38;;;;;;;;;23.40;22.00;;;;;22.51;64.30;98200.66;5088950;28;8863;-78
2022/09/17 00:09:09;;;;;;;;;26.80;25.00;;;;;22.54;63.42;98196.94;5088966;28;9702;-79
2022/09/17 00:11:40;;;;;;;;;32.80;31.60;;;;;22.49;63.88;98196.41;5106358;28;8914;-78
2022/09/17 00:14:14;;;;;;;;;26.00;25.00;;;;;22.56;64.00;98195.84;5091498;28;8875;-80
2022/09/17 00:16:44;;;;;;;;;29.40;28.00;;;;;22.48;64.07;98189.41;5053572;28;9001;-77
2022/09/17 00:19:15;;;;;;;;;28.60;26.80;;;;;22.49;64.33;98199.91;5085731;28;9647;-78
2022/09/17 00:21:44;;;;;;;;;27.80;26.80;;;;;22.51;64.04;98205.97;5102358;28;8838;-79
2022/09/17 00:24:15;;;;;;;;;29.60;27.20;;;;;22.22;64.65;98215.94;5068901;28;9012;-78
2022/09/17 00:26:44;;;;;;;;;27.80;25.80;;;;;22.16;65.32;98203.94;5068726;28;8850;-77
2022/09/17 00:29:12;;;;;;;;;21.60;21.60;;;;;22.29;65.12;98197.81;5069040;28;8858;-78
2022/09/17 00:31:41;;;;;;;;;22.40;22.00;;;;;22.36;64.74;98196.41;5086025;28;8969;-78
2022/09/17 00:34:11;;;;;;;;;29.20;24.40;;;;;22.39;64.68;98175.78;5102494;28;8853;-78
2022/09/17 00:36:39;;;;;;;;;24.80;24.40;;;;;22.37;64.24;98159.13;5093205;27;8843;-79
2022/09/17 00:39:10;;;;;;;;;26.20;25.60;;;;;22.34;64.56;98164.69;5090943;28;9648;-78
2022/09/17 00:41:40;;;;;;;;;25.40;23.20;;;;;22.37;64.57;98184.84;5082643;28;8838;-79
2022/09/17 00:44:51;;;;;;;;;30.00;26.80;;;;;22.57;64.89;98200.22;5068737;28;8989;-76
2022/09/17 00:47:29;;;;;;;;;31.00;28.40;;;;;22.51;64.76;98200.66;5050402;28;8866;-77
2022/09/17 00:50:01;;;;;;;;;27.60;26.40;;;;;22.31;64.10;98222.47;5050391;28;8889;-77
2022/09/17 00:52:34;;;;;;;;;26.20;22.00;;;;;21.61;67.01;98252.84;5042018;28;8852;-77
2022/09/17 00:55:10;;;;;;;;;28.00;24.80;;;;;21.85;67.12;98299.91;5050824;28;9092;-78
2022/09/17 00:57:41;;;;;;;;;23.20;20.60;;;;;21.91;68.17;98252.59;5066390;28;9022;-78
2022/09/17 01:00:10;;;;;;;;;26.60;24.80;;;;;21.87;68.10;98184.75;5067198;28;8878;-77
2022/09/17 01:02:41;;;;;;;;;19.80;19.80;;;;;21.71;67.85;98190.22;5066693;28;8833;-79
2022/09/17 01:05:11;;;;;;;;;23.40;22.40;;;;;21.85;67.95;98167.22;5066862;28;8849;-77
2022/09/17 01:07:56;;;;;;;;;25.00;23.40;;;;;21.89;67.10;98171.34;5066736;28;9606;-78
2022/09/17 01:10:42;;;;;;;;;25.20;23.80;;;;;21.94;67.14;98183.34;5037551;28;9763;-78
2022/09/17 01:13:25;;;;;;;;;24.00;23.20;;;;;21.78;67.38;98210.09;5030310;28;8980;-78
2022/09/17 01:16:03;;;;;;;;;20.20;20.00;;;;;21.38;68.26;98257.84;5048861;28;9947;-80
2022/09/17 01:18:45;;;;;;;;;18.40;18.40;;;;;20.60;71.44;98281.34;5049996;28;8899;-77
2022/09/17 01:21:37;;;;;;;;;21.00;20.80;;;;;20.39;72.93;98289.63;5066541;28;9781;-78
2022/09/17 01:24:46;;;;;;;;;19.20;16.60;;;;;18.54;79.51;98336.19;5078848;28;8835;-83
2022/09/17 01:27:54;;;;;;;;;19.60;18.60;;;;;18.22;83.46;98322.91;5084747;28;8838;-76
2022/09/17 01:30:59;;;;;;;;;18.40;17.40;;;;;18.06;82.21;98329.88;5067943;28;8850;-75
2022/09/17 01:33:39;;;;;;;;;18.80;17.60;;;;;18.13;83.27;98328.63;5078692;28;8964;-74
2022/09/17 01:36:21;;;;;;;;;10.00;9.00;;;;;18.26;82.83;98310.38;5073912;28;8906;-76
2022/09/17 01:38:55;;;;;;;;;19.00;18.40;;;;;18.30;81.94;98315.44;5049233;28;8843;-78
2022/09/17 01:41:32;;;;;;;;;16.80;16.60;;;;;18.18;82.25;98304.66;5082210;28;8876;-75
2022/09/17 01:44:10;;;;;;;;;21.00;18.20;;;;;18.14;82.21;98317.13;5061959;28;8822;-78
2022/09/17 01:46:43;;;;;;;;;21.60;17.40;;;;;18.12;81.78;98311.94;5086150;28;8866;-78
2022/09/17 01:49:16;;;;;;;;;15.80;14.80;;;;;18.23;81.59;98255.97;5086152;28;8841;-75
2022/09/17 01:51:48;;;;;;;;;13.40;13.40;;;;;18.10;81.62;98265.47;5086373;28;8981;-75
2022/09/17 01:54:23;;;;;;;;;17.80;16.00;;;;;18.07;81.71;98276.16;5085819;28;8976;-77
2022/09/17 01:56:56;;;;;;;;;15.80;14.60;;;;;17.79;80.12;98288.09;5045662;28;9025;-77
2022/09/17 01:59:29;;;;;;;;;8.00;6.60;;;;;17.33;77.42;98277.19;5028510;28;8906;-73
2022/09/17 02:02:03;;;;;;;;;6.20;6.20;;;;;17.32;78.68;98276.34;5045391;28;9536;-75
2022/09/17 02:04:37;;;;;;;;;5.20;5.00;;;;;17.46;77.43;98269.53;5029112;28;8882;-76
2022/09/17 02:07:13;;;;;;;;;5.60;5.00;;;;;16.93;76.05;98271.19;5028970;28;8850;-77
2022/09/17 02:09:46;;;;;;;;;5.00;5.00;;;;;16.69;75.89;98268.75;5045950;28;9552;-75
2022/09/17 02:12:20;;;;;;;;;5.20;4.80;;;;;16.95;76.44;98266.69;5049008;28;8828;-76
2022/09/17 02:14:52;;;;;;;;;4.80;3.80;;;;;16.82;74.50;98261.16;5066034;28;9036;-75
2022/09/17 02:17:27;;;;;;;;;5.00;3.20;;;;;16.76;74.64;98271.94;5030862;28;8897;-78
2022/09/17 02:19:57;;;;;;;;;3.20;3.20;;;;;16.90;73.75;98289.75;5085793;28;9588;-78
2022/09/17 02:22:32;;;;;;;;;5.20;3.20;;;;;16.30;72.23;98372.22;5085519;28;8838;-75
2022/09/17 02:25:06;;;;;;;;;4.00;4.00;;;;;15.15;78.23;98418.84;5085755;28;8857;-75
2022/09/17 02:27:44;;;;;;;;;6.00;5.00;;;;;15.72;77.91;98329.94;5071864;28;8887;-76
2022/09/17 02:30:14;;;;;;;;;4.00;4.00;;;;;15.90;76.93;98270.53;5087972;28;8863;-76
2022/09/17 02:32:43;;;;;;;;;5.80;4.00;;;;;16.15;76.45;98289.56;5086867;28;8897;-76
2022/09/17 02:35:14;;;;;;;;;3.00;3.00;;;;;16.20;75.42;98341.09;5066698;28;8956;-78
2022/09/17 02:37:44;;;;;;;;;3.00;3.00;;;;;15.98;75.26;98374.44;5066881;28;9071;-78
2022/09/17 02:40:15;;;;;;;;;4.20;4.20;;;;;15.70;76.69;98358.03;5100140;27;9080;-76
2022/09/17 02:42:59;;;;;;;;;5.20;4.00;;;;;15.87;76.82;98350.34;5100961;28;8951;-76
2022/09/17 02:45:40;;;;;;;;;4.20;4.20;;;;;15.72;76.25;98375.44;5060829;28;8844;-75
2022/09/17 02:48:33;;;;;;;;;5.00;4.60;;;;;15.79;77.07;98373.47;5087684;28;8844;-75
2022/09/17 02:51:19;;;;;;;;;4.40;4.40;;;;;16.00;76.42;98345.44;5086815;28;8864;-77
2022/09/17 02:53:57;;;;;;;;;5.20;5.00;;;;;16.24;75.62;98327.78;5069539;28;8846;-77
2022/09/17 02:56:34;;;;;;;;;5.60;4.60;;;;;16.26;75.46;98330.34;5100500;28;8965;-77
2022/09/17 02:59:13;;;;;;;;;3.40;3.40;;;;;16.37;74.21;98357.88;5067204;28;8862;-76
2022/09/17 03:01:45;;;;;;;;;3.00;3.00;;;;;16.61;73.21;98346.34;5102460;28;8947;-77
2022/09/17 03:04:18;;;;;;;;;5.80;5.00;;;;;16.70;73.73;98349.41;5071426;28;8892;-77
2022/09/17 03:06:48;;;;;;;;;5.00;5.00;;;;;16.70;72.75;98364.38;5083152;28;9022;-80
2022/09/17 03:09:17;;;;;;;;;4.80;4.80;;;;;16.73;72.48;98344.03;5087958;28;8835;-75
2022/09/17 03:11:45;;;;;;;;;17.80;16.40;;;;;16.91;71.99;98333.59;5035659;28;8978;-77
2022/09/17 03:14:13;;;;;;;;;21.00;17.80;;;;;16.95;71.43;98308.84;5103386;28;8970;-76
2022/09/17 03:16:42;;;;;;;;;6.00;6.00;;;;;17.09;71.69;98305.56;5087587;28;8898;-76
2022/09/17 03:19:10;;;;;;;;;5.00;4.00;;;;;17.10;70.85;98302.00;5081768;28;8958;-77
2022/09/17 03:21:39;;;;;;;;;5.00;5.00;;;;;17.13;70.82;98310.63;5088355;28;9027;-76
2022/09/17 03:24:10;;;;;;;;;6.40;4.80;;;;;17.25;70.95;98289.88;5087953;28;8887;-75
2022/09/17 03:26:39;;;;;;;;;6.00;5.20;;;;;17.35;70.23;98291.13;5088582;28;8904;-75
2022/09/17 03:29:07;;;;;;;;;6.80;5.40;;;;;17.43;69.68;98294.28;5038451;28;8872;-75
2022/09/17 03:31:36;;;;;;;;;5.00;5.00;;;;;17.38;68.91;98291.00;5088917;28;9594;-76
2022/09/17 03:34:04;;;;;;;;;6.80;6.00;;;;;17.44;70.10;98303.03;5088687;28;8849;-75
2022/09/17 03:36:33;;;;;;;;;4.60;4.60;;;;;17.49;69.18;98307.16;5088381;28;8868;-76
2022/09/17 03:39:02;;;;;;;;;5.00;5.00;;;;;17.46;69.04;98304.66;5071627;28;9634;-77
2022/09/17 03:41:31;;;;;;;;;5.60;5.00;;;;;17.63;69.38;98302.97;5099870;28;8921;-76
2022/09/17 03:44:00;;;;;;;;;5.00;4.20;;;;;17.50;69.64;98294.81;5091804;28;9635;-76
2022/09/17 03:46:30;;;;;;;;;7.20;6.60;;;;;17.29;69.77;98305.47;5091782;28;8854;-78
2022/09/17 03:48:58;;;;;;;;;6.00;5.00;;;;;17.37;70.20;98309.50;5108453;28;8878;-78
2022/09/17 03:51:27;;;;;;;;;17.40;15.60;;;;;17.34;70.09;98302.63;5109024;28;8847;-76
2022/09/17 03:53:55;;;;;;;;;6.40;6.40;;;;;17.17;70.54;98303.41;5022194;28;8982;-77
2022/09/17 03:56:25;;;;;;;;;4.20;4.20;;;;;17.14;70.84;98299.16;5075288;28;8966;-78
2022/09/17 03:58:59;;;;;;;;;6.80;6.80;;;;;17.21;69.79;98298.88;5056164;28;8944;-77
2022/09/17 04:01:29;;;;;;;;;5.00;5.00;;;;;17.41;70.32;98317.22;5089851;28;8897;-77
2022/09/17 04:03:57;;;;;;;;;8.00;6.20;;;;;17.63;70.04;98314.38;5089363;28;8974;-80
2022/09/17 04:06:26;;;;;;;;;9.20;5.80;;;;;17.78;69.91;98309.28;5089624;28;8862;-77
2022/09/17 04:08:55;;;;;;;;;5.20;5.20;;;;;17.87;68.87;98314.97;5106607;28;8974;-75
2022/09/17 04:11:24;;;;;;;;;4.60;4.60;;;;;17.84;68.53;98319.50;5088086;28;8951;-75
2022/09/17 04:13:52;;;;;;;;;29.00;26.20;;;;;17.77;68.64;98323.38;5067573;28;8968;-74
2022/09/17 04:16:22;;;;;;;;;4.40;4.40;;;;;17.93;68.44;98321.72;5068625;28;8894;-75
2022/09/17 04:18:51;;;;;;;;;13.40;13.40;;;;;17.68;68.57;98343.16;5086094;28;8862;-77
2022/09/17 04:21:19;;;;;;;;;10.20;9.00;;;;;17.66;68.76;98369.59;5069267;28;8857;-77
2022/09/17 04:23:48;;;;;;;;;7.20;7.20;;;;;17.23;70.14;98376.03;5075651;28;8895;-74
2022/09/17 04:26:16;;;;;;;;;7.80;7.00;;;;;17.59;70.20;98375.25;5070530;28;8948;-74
2022/09/17 04:28:45;;;;;;;;;8.00;8.00;;;;;17.80;69.93;98366.28;5085030;28;8850;-79
2022/09/17 04:31:13;;;;;;;;;7.00;7.00;;;;;17.84;69.25;98338.84;5069955;28;8980;-75
2022/09/17 04:33:43;;;;;;;;;8.00;7.00;;;;;17.89;69.20;98371.13;5051923;28;8899;-76
2022/09/17 04:36:11;;;;;;;;;8.60;8.00;;;;;18.03;69.22;98377.50;5068546;28;8988;-77
2022/09/17 04:38:40;;;;;;;;;10.60;9.20;;;;;17.86;67.72;98387.13;5057437;28;8947;-75
2022/09/17 04:41:08;;;;;;;;;10.00;8.00;;;;;17.72;68.42;98392.16;5088665;28;8948;-76
2022/09/17 04:43:37;;;;;;;;;11.40;9.40;;;;;17.87;69.07;98390.59;5082248;28;8842;-75
2022/09/17 04:46:06;;;;;;;;;10.80;8.60;;;;;17.99;68.02;98389.16;5069354;28;8940;-75
2022/09/17 04:48:35;;;;;;;;;8.00;8.00;;;;;17.89;68.32;98389.59;5068620;28;8866;-75
2022/09/17 04:51:05;;;;;;;;;11.00;8.80;;;;;18.00;68.13;98389.06;5068519;28;8951;-74
2022/09/17 04:53:33;;;;;;;;;9.40;9.40;;;;;18.19;68.69;98378.44;5069853;28;8861;-80
2022/09/17 04:56:02;;;;;;;;;7.20;7.20;;;;;18.22;67.74;98370.41;5069930;28;8858;-75
2022/09/17 04:58:31;;;;;;;;;11.80;10.20;;;;;18.06;67.99;98374.72;5049343;28;8985;-74
2022/09/17 05:01:00;;;;;;;;;9.00;9.00;;;;;18.05;68.45;98383.56;5068308;28;8867;-78
2022/09/17 05:03:28;;;;;;;;;10.60;9.20;;;;;18.12;67.97;98384.97;5069840;28;8858;-75
2022/09/17 05:05:57;;;;;;;;;8.80;8.80;;;;;18.06;67.66;98411.66;5068995;28;8874;-77
2022/09/17 05:08:27;;;;;;;;;12.20;12.00;;;;;17.86;67.89;98426.69;5069460;28;8854;-74
2022/09/17 05:10:55;;;;;;;;;13.00;13.00;;;;;16.93;71.31;98426.56;5050777;28;8876;-76
2022/09/17 05:13:24;;;;;;;;;15.00;13.80;;;;;16.26;74.67;98439.03;5069310;28;8930;-75
2022/09/17 05:15:54;;;;;;;;;15.80;14.60;;;;;16.48;75.75;98420.59;5069432;28;8849;-77
2022/09/17 05:18:23;;;;;;;;;20.60;14.20;;;;;16.77;74.58;98406.16;5050457;28;8862;-77
2022/09/17 05:20:52;;;;;;;;;15.00;14.00;;;;;17.06;73.70;98405.81;5069824;28;9094;-74
2022/09/17 05:23:20;;;;;;;;;12.00;11.80;;;;;17.28;72.88;98393.34;5069133;28;8866;-76
2022/09/17 05:25:51;;;;;;;;;15.60;15.60;;;;;17.37;73.39;98386.78;5050210;28;8866;-76
2022/09/17 05:28:19;;;;;;;;;15.00;14.00;;;;;17.51;72.19;98380.88;5069188;28;8952;-78
2022/09/17 05:30:48;;;;;;;;;14.00;13.00;;;;;17.75;71.84;98384.13;5068182;28;8939;-78
2022/09/17 05:33:18;;;;;;;;;15.20;15.00;;;;;17.87;70.84;98399.38;5067892;28;8949;-78
2022/09/17 05:35:47;;;;;;;;;15.60;13.60;;;;;17.47;72.66;98417.06;5097769;28;9617;-77
2022/09/17 05:38:17;;;;;;;;;16.80;16.00;;;;;16.52;76.13;98429.19;5091240;28;8851;-77
2022/09/17 05:40:46;;;;;;;;;18.20;16.40;;;;;16.59;76.11;98442.94;5073466;28;8898;-76
2022/09/17 05:43:16;;;;;;;;;23.20;21.80;;;;;17.08;75.17;98441.66;5069190;28;8868;-76
2022/09/17 05:45:44;;;;;;;;;19.40;17.00;;;;;17.40;73.88;98435.88;5050243;28;8873;-76
2022/09/17 05:48:14;;;;;;;;;17.80;17.00;;;;;17.68;73.44;98435.44;5068442;28;8847;-75
2022/09/17 05:50:42;;;;;;;;;20.60;17.00;;;;;17.20;73.79;98442.91;5072119;28;8847;-78
2022/09/17 05:53:13;;;;;;;;;18.20;17.40;;;;;17.12;73.92;98429.22;5088463;28;8851;-77
2022/09/17 05:55:42;;;;;;;;;23.40;21.00;;;;;16.74;75.34;98429.13;5086037;28;8862;-76
2022/09/17 05:58:11;;;;;;;;;21.20;18.20;;;;;16.26;77.77;98430.31;5088931;28;8863;-76
2022/09/17 06:00:42;;;;;;;;;20.40;19.20;;;;;16.45;77.60;98443.53;5088161;28;8870;-75
2022/09/17 06:03:12;;;;;;;;;17.40;17.20;;;;;16.40;78.32;98451.63;5087202;28;8844;-74
2022/09/17 06:05:41;;;;;;;;;19.00;17.20;;;;;17.05;76.31;98439.19;5088589;28;8926;-75
2022/09/17 06:08:10;;;;;;;;;22.40;21.40;;;;;16.63;77.31;98426.09;5087995;28;8831;-78
2022/09/17 06:10:39;;;;;;;;;18.80;17.60;;;;;16.79;76.21;98432.41;5087095;28;8867;-77
2022/09/17 06:13:07;;;;;;;;;21.00;19.80;;;;;16.83;75.25;98412.94;5054553;28;8855;-78
2022/09/17 06:15:35;;;;;;;;;18.60;16.80;;;;;17.07;74.17;98382.03;5089727;28;8878;-76
2022/09/17 06:18:05;;;;;;;;;17.40;17.40;;;;;17.47;74.17;98361.72;5088193;28;8940;-76
2022/09/17 06:20:34;;;;;;;;;17.60;16.80;;;;;17.04;74.40;98361.09;5062266;28;8874;-76
2022/09/17 06:23:02;;;;;;;;;20.60;18.40;;;;;16.81;75.08;98379.69;5067625;28;8842;-75
2022/09/17 06:25:30;;;;;;;;;23.40;19.60;;;;;16.34;78.02;98394.84;5066244;28;8881;-79
2022/09/17 06:28:02;;;;;;;;;24.20;18.00;;;;;15.99;80.86;98412.09;5066075;28;8831;-75
2022/09/17 06:30:30;;;;;;;;;20.00;18.00;;;;;16.23;79.46;98422.53;5067905;28;8938;-79
2022/09/17 06:33:00;;;;;;;;;24.40;22.20;;;;;16.18;80.04;98422.69;5068301;28;8878;-75
2022/09/17 06:35:30;;;;;;;;;21.80;20.80;;;;;16.12;80.60;98429.09;5066456;28;8842;-78
2022/09/17 06:37:58;;;;;;;;;19.80;18.40;;;;;16.15;80.67;98430.75;5066392;28;9663;-76
2022/09/17 06:40:27;;;;;;;;;23.60;20.40;;;;;16.17;80.36;98439.41;5017245;28;8878;-74
2022/09/17 06:42:57;;;;;;;;;21.00;18.00;;;;;16.15;80.84;98442.09;5068288;28;8850;-76
2022/09/17 06:45:26;;;;;;;;;22.60;20.20;;;;;16.55;79.14;98432.53;5066557;28;8940;-76
2022/09/17 06:47:55;;;;;;;;;22.20;19.60;;;;;16.38;80.27;98430.63;5092593;28;8873;-76
2022/09/17 06:50:24;;;;;;;;;13.80;13.40;;;;;16.65;78.48;98435.63;5087851;28;9077;-71
2022/09/17 06:52:55;;;;;;;;;21.80;19.40;;;;;16.64;78.13;98419.91;5087735;28;8851;-72
2022/09/17 06:55:23;;;;;;;;;24.40;22.00;;;;;16.43;79.84;98416.44;5085386;28;8862;-72
2022/09/17 06:57:52;;;;;;;;;22.20;20.80;;;;;16.50;79.96;98409.97;5090147;28;8831;-72
2022/09/17 07:00:21;;;;;;;;;23.80;19.00;;;;;16.47;79.00;98410.13;5087253;28;8873;-73
2022/09/17 07:02:56;;;;;;;;;20.60;18.80;;;;;16.33;80.31;98410.69;5110495;28;8857;-72
2022/09/17 07:05:25;;;;;;;;;22.60;20.60;;;;;15.96;81.26;98396.47;5101826;28;8866;-76
2022/09/17 07:07:56;;;;;;;;;23.00;23.00;;;;;15.88;81.91;98381.00;5091495;28;10015;-73
2022/09/17 07:10:25;;;;;;;;;24.80;24.60;;;;;15.90;82.18;98380.94;5072234;28;8863;-72
2022/09/17 07:12:54;;;;;;;;;24.20;23.40;;;;;15.66;83.43;98388.84;5093549;28;8851;-74
2022/09/17 07:15:23;;;;;;;;;28.60;22.40;;;;;15.68;84.29;98392.28;5091610;28;8856;-73
2022/09/17 07:17:52;;;;;;;;;25.20;22.40;;;;;15.70;84.03;98398.31;5109677;28;8890;-76
2022/09/17 07:20:20;;;;;;;;;21.00;21.00;;;;;16.21;82.33;98400.69;5092247;28;8891;-78
2022/09/17 07:22:57;;;;;;;;;26.80;23.20;;;;;15.93;82.48;98396.56;5058546;28;9636;-75
2022/09/17 07:25:25;;;;;;;;;26.20;25.00;;;;;15.88;83.18;98415.19;5091799;28;8878;-73
2022/09/17 07:27:54;;;;;;;;;22.80;22.40;;;;;15.70;84.88;98418.50;5082458;28;8874;-80
2022/09/17 07:30:23;;;;;;;;;24.80;22.60;;;;;15.57;85.52;98420.75;5075942;28;8875;-82
2022/09/17 07:32:53;;;;;;;;;25.20;24.40;;;;;15.78;85.03;98411.19;5093560;28;8842;-80
2022/09/17 07:35:21;;;;;;;;;26.40;25.40;;;;;15.67;85.12;98406.34;5093911;28;8847;-82
2022/09/17 07:37:49;;;;;;;;;21.40;21.20;;;;;15.84;84.72;98408.34;5090620;28;8848;-80
2022/09/17 07:40:20;;;;;;;;;30.60;29.80;;;;;16.02;84.08;98404.09;5076546;28;8867;-82
2022/09/17 07:42:49;;;;;;;;;21.00;16.00;;;;;16.04;83.10;98411.91;5093287;28;8868;-83
2022/09/17 07:45:18;;;;;;;;;23.60;21.80;;;;;16.09;83.18;98418.69;5105756;28;8853;-82
2022/09/17 07:47:48;;;;;;;;;26.60;24.60;;;;;16.11;83.64;98422.13;5094711;28;8859;-84
2022/09/17 07:50:16;;;;;;;;;24.40;21.60;;;;;16.09;81.73;98429.22;5099399;28;8942;-81
2022/09/17 07:52:46;;;;;;;;;22.40;19.80;;;;;16.69;80.45;98425.81;5082191;28;8867;-83
2022/09/17 07:55:15;;;;;;;;;25.20;24.20;;;;;16.72;79.09;98426.53;5080295;28;10004;-84
2022/09/17 07:57:51;;;;;;;;;22.60;21.00;;;;;16.68;79.64;98434.66;5091304;28;8906;-81
2022/09/17 08:00:20;;;;;;;;;29.80;21.00;;;;;16.80;78.61;98430.63;5091936;28;8862;-85
2022/09/17 08:02:54;;;;;;;;;17.20;17.20;;;;;17.13;76.97;98423.03;5100919;28;8863;-83
2022/09/17 08:05:24;;;;;;;;;21.40;18.20;;;;;17.06;75.91;98429.50;5076785;28;9427;-82
2022/09/17 08:07:54;;;;;;;;;21.40;20.60;;;;;17.44;75.55;98425.09;5070847;28;8979;-80
2022/09/17 08:10:23;;;;;;;;;19.20;18.40;;;;;17.49;74.70;98414.38;5070964;28;8870;-82
2022/09/17 08:12:56;;;;;;;;;19.40;18.40;;;;;17.64;73.94;98412.78;5075902;28;8846;-85
2022/09/17 08:15:25;;;;;;;;;16.00;15.00;;;;;17.78;72.12;98410.31;5069783;28;8858;-81
2022/09/17 08:17:54;;;;;;;;;19.20;16.60;;;;;17.87;71.74;98402.00;5070589;28;8986;-81
2022/09/17 08:20:25;;;;;;;;;18.40;18.00;;;;;18.12;72.03;98400.78;5069490;28;8955;-81
2022/09/17 08:22:59;;;;;;;;;16.20;15.20;;;;;18.40;71.15;98388.84;5076848;28;8873;-84
2022/09/17 08:25:28;;;;;;;;;16.20;11.80;;;;;18.57;70.14;98385.34;5078484;28;8871;-84
2022/09/17 08:27:58;;;;;;;;;12.00;10.40;;;;;18.75;69.31;98386.16;5090088;28;8886;-80
2022/09/17 08:30:27;;;;;;;;;14.20;14.20;;;;;18.88;69.91;98387.25;5073168;28;9003;-81
2022/09/17 08:32:56;;;;;;;;;15.40;13.60;;;;;19.07;68.93;98400.31;5075255;28;10234;-83
2022/09/17 08:35:26;;;;;;;;;14.00;13.20;;;;;19.03;68.02;98418.13;5074800;28;8890;-83
2022/09/17 08:37:55;;;;;;;;;10.60;10.00;;;;;19.28;66.89;98409.75;5077658;28;8892;-82
2022/09/17 08:40:27;;;;;;;;;18.60;15.80;;;;;19.57;67.49;98415.22;5105527;27;9019;-81
2022/09/17 08:43:01;;;;;;;;;18.00;14.40;;;;;19.17;67.06;98421.81;5056829;28;8859;-82
2022/09/17 08:45:30;;;;;;;;;16.80;14.60;;;;;19.11;65.28;98432.72;5068610;28;8862;-82
2022/09/17 08:48:03;;;;;;;;;14.60;14.20;;;;;18.93;66.38;98424.84;5126299;27;8851;-81
2022/09/17 08:50:37;;;;;;;;;15.00;14.20;;;;;19.38;67.03;98418.03;5097911;28;8850;-80
2022/09/17 08:53:22;;;;;;;;;17.00;13.60;;;;;19.60;66.70;98401.84;5092656;28;8855;-82
2022/09/17 08:55:58;;;;;;;;;12.40;12.20;;;;;19.67;65.28;98395.25;5089305;28;8940;-81
2022/09/17 08:58:54;;;;;;;;;11.20;11.20;;;;;20.08;65.83;98391.22;5073176;28;8878;-80
2022/09/17 09:01:32;;;;;;;;;12.00;11.60;;;;;20.16;63.20;98404.84;5120390;27;8867;-82
2022/09/17 09:04:33;;;;;;;;;10.60;9.60;;;;;20.14;62.52;98414.69;5087772;28;8871;-85
2022/09/17 09:07:06;;;;;;;;;10.40;8.80;;;;;20.05;61.85;98416.06;5088326;28;8859;-82
2022/09/17 09:09:40;;;;;;;;;9.80;9.80;;;;;20.11;62.17;98422.78;5069617;28;8836;-81
2022/09/17 09:12:15;;;;;;;;;8.40;8.40;;;;;20.21;62.17;98408.09;5086640;28;8856;-81
2022/09/17 09:14:51;;;;;;;;;9.40;8.80;;;;;20.14;60.88;98392.66;5103749;28;8848;-83
2022/09/17 09:17:26;;;;;;;;;8.40;8.40;;;;;20.16;60.87;98383.69;5054533;28;8839;-84
2022/09/17 09:19:55;;;;;;;;;10.00;10.00;;;;;20.23;61.96;98377.09;5094945;28;8874;-83
2022/09/17 09:22:34;;;;;;;;;10.60;9.20;;;;;20.30;60.03;98380.22;5089640;28;8868;-86
2022/09/17 09:25:11;;;;;;;;;6.20;6.20;;;;;20.23;59.64;98381.53;5071094;28;8995;-81
2022/09/17 09:27:47;;;;;;;;;9.40;9.40;;;;;20.12;60.61;98390.09;5086768;28;8828;-84
2022/09/17 09:30:22;;;;;;;;;9.80;8.00;;;;;20.27;60.38;98400.75;5083834;28;8870;-89
2022/09/17 09:33:00;;;;;;;;;9.00;9.00;;;;;20.49;60.79;98387.94;5101879;28;8854;-83
2022/09/17 09:35:31;;;;;;;;;8.60;6.80;;;;;20.60;60.17;98392.59;5032886;28;8881;-85
2022/09/17 09:38:06;;;;;;;;;7.00;7.00;;;;;20.53;58.58;98404.47;5060419;28;8955;-83
2022/09/17 09:40:41;;;;;;;;;8.20;8.20;;;;;20.62;58.89;98401.31;5097509;28;8854;-82
2022/09/17 09:43:17;;;;;;;;;6.20;6.20;;;;;20.64;59.66;98400.28;5040926;28;8952;-81
2022/09/17 09:46:06;;;;;;;;;10.00;7.00;;;;;20.78;59.04;98388.84;5076098;28;8977;-80
2022/09/17 09:48:44;;;;;;;;;11.00;9.40;;;;;20.18;59.28;98389.72;5105277;28;8863;-84
2022/09/17 09:51:29;;;;;;;;;10.80;8.20;;;;;20.54;59.37;98387.66;5109457;27;8878;-81
2022/09/17 09:54:16;;;;;;;;;7.80;7.80;;;;;20.52;59.45;98382.44;5100258;28;9509;-84
2022/09/17 09:56:57;;;;;;;;;7.20;7.00;;;;;20.76;59.87;98380.16;5073919;28;8984;-85
2022/09/17 09:59:27;;;;;;;;;6.40;6.40;;;;;20.70;58.68;98383.19;5087437;28;8941;-84
2022/09/17 10:01:58;;;;;;;;;9.00;8.20;;;;;20.64;58.12;98383.53;5071032;28;8822;-85
2022/09/17 10:04:31;;;;;;;;;12.40;12.00;;;;;20.69;58.03;98378.81;5108049;27;8861;-81
2022/09/17 10:07:05;;;;;;;;;21.40;20.80;;;;;20.83;59.09;98372.66;5085307;28;8897;-83
2022/09/17 10:09:36;;;;;;;;;45.00;36.25;;;;;20.92;59.51;98371.25;5087899;28;8952;-86
2022/09/17 10:12:15;;;;;;;;;44.00;36.25;;;;;21.02;59.96;98354.69;5104643;28;8940;-82
2022/09/17 10:14:46;;;;;;;;;18.00;16.00;;;;;21.08;59.38;98347.28;5087874;28;8863;-84
2022/09/17 10:17:22;;;;;;;;;14.00;14.00;;;;;21.17;59.06;98339.63;5112479;28;8880;-82
2022/09/17 10:20:14;;;;;;;;;12.60;11.80;;;;;21.19;59.16;98344.81;5073013;28;8828;-84
2022/09/17 10:22:50;;;;;;;;;12.20;11.60;;;;;21.04;59.03;98346.66;5035009;28;8869;-82
2022/09/17 10:25:28;;;;;;;;;11.40;9.40;;;;;21.08;58.67;98334.91;5012650;28;8898;-84
2022/09/17 10:27:59;;;;;;;;;12.40;11.80;;;;;21.05;59.43;98339.53;5012084;28;8911;-83
2022/09/17 10:30:29;;;;;;;;;9.20;8.80;;;;;20.98;58.86;98325.81;4986001;28;8858;-82
2022/09/17 10:33:19;;;;;;;;;8.00;8.00;;;;;20.97;59.43;98321.47;4993866;28;8994;-82
2022/09/17 10:36:00;;;;;;;;;9.80;9.80;;;;;20.82;58.94;98324.13;4977643;28;8994;-83
2022/09/17 10:38:34;;;;;;;;;10.80;9.60;;;;;20.85;59.84;98323.09;5008085;28;8862;-83
2022/09/17 10:41:12;;;;;;;;;11.00;11.00;;;;;20.97;60.14;98317.00;5026300;28;8866;-84
2022/09/17 10:43:41;;;;;;;;;13.40;13.20;;;;;20.91;60.29;98333.31;4994229;28;8837;-86
2022/09/17 10:46:15;;;;;;;;;11.40;10.60;;;;;20.25;61.52;98340.78;5009324;28;8845;-82
2022/09/17 10:48:54;;;;;;;;;14.20;13.60;;;;;20.27;62.56;98338.06;4974539;28;8864;-83
2022/09/17 10:51:25;;;;;;;;;14.60;13.80;;;;;20.44;63.14;98298.16;4957434;28;8981;-82
2022/09/17 10:54:18;;;;;;;;;14.00;11.40;;;;;20.63;62.73;98237.00;4967359;28;8872;-85
2022/09/17 10:56:54;;;;;;;;;13.80;12.60;;;;;20.53;63.34;98204.06;4982302;28;8868;-83
2022/09/17 10:59:49;;;;;;;;;15.00;15.00;;;;;20.72;63.24;98250.59;4986330;28;10025;-82
2022/09/17 11:02:48;;;;;;;;;13.20;13.20;;;;;20.77;63.14;98272.34;5023821;28;8890;-84
2022/09/17 11:05:39;;;;;;;;;19.00;17.80;;;;;20.87;63.80;98268.19;4952351;28;8871;-85
2022/09/17 11:08:17;;;;;;;;;19.40;17.40;;;;;20.97;63.59;98265.81;4941694;28;8872;-84
2022/09/17 11:10:53;;;;;;;;;14.20;12.80;;;;;21.10;63.26;98271.19;4959736;28;8874;-84
2022/09/17 11:13:32;;;;;;;;;14.80;13.60;;;;;21.08;61.98;98267.75;4901645;29;8882;-85
2022/09/17 11:16:16;;;;;;;;;12.20;11.80;;;;;21.22;62.37;98252.66;4903860;29;8940;-85
2022/09/17 11:18:51;;;;;;;;;15.00;12.60;;;;;21.17;62.34;98261.84;4912925;29;10030;-85
2022/09/17 11:21:40;;;;;;;;;12.60;11.40;;;;;21.40;62.29;98261.22;4933255;29;8867;-83
2022/09/17 11:24:45;;;;;;;;;13.60;13.60;;;;;21.35;61.02;98255.38;4940917;29;8868;-81
2022/09/17 11:27:25;;;;;;;;;13.20;13.20;;;;;21.34;61.30;98252.81;4907847;29;8979;-84
2022/09/17 11:30:05;;;;;;;;;10.40;10.00;;;;;21.38;60.65;98247.22;4935646;29;8884;-84
2022/09/17 11:32:51;;;;;;;;;16.80;16.20;;;;;21.47;61.26;98243.13;4932971;29;8888;-84
2022/09/17 11:35:23;;;;;;;;;17.40;16.80;;;;;21.36;60.12;98241.19;4929896;29;8856;-85
2022/09/17 11:38:01;;;;;;;;;19.60;17.80;;;;;21.41;60.71;98232.91;4902034;29;8926;-83
2022/09/17 11:40:39;;;;;;;;;15.60;14.80;;;;;20.99;60.57;98245.34;4903749;29;8875;-84
2022/09/17 11:43:19;;;;;;;;;15.40;14.20;;;;;21.14;61.08;98235.56;4951766;28;8844;-74
2022/09/17 11:45:57;;;;;;;;;19.20;18.20;;;;;21.16;61.24;98231.00;5068800;28;8886;-74
2022/09/17 11:48:33;;;;;;;;;14.60;14.60;;;;;21.00;61.89;98224.06;5031307;28;8878;-74
2022/09/17 11:51:13;;;;;;;;;18.60;17.60;;;;;21.02;60.95;98224.81;5015039;28;8838;-75
2022/09/17 11:53:50;;;;;;;;;11.80;11.60;;;;;20.98;60.64;98223.31;5030895;28;8858;-75
2022/09/17 11:56:25;;;;;;;;;12.60;12.60;;;;;21.07;61.13;98207.75;5044177;28;8856;-75
2022/09/17 11:59:02;;;;;;;;;13.80;12.00;;;;;21.09;61.03;98184.66;5061124;28;8883;-74